Date,TemperatureHighF,TemperatureAvgF,TemperatureLowF,DewpointHighF,DewpointAvgF,DewpointLowF,HumidityHigh,HumidityAvg,HumidityLow,PressureMaxIn,PressureMinIn,WindSpeedMaxMPH,WindSpeedAvgMPH,GustSpeedMaxMPH,PrecipitationSumIn
2014-1-1,63.0,52.0,44.2,49.4,43.6,37.2,85,73,56,30.07,29.99,9,3,14,0.00
2014-1-2,61.9,56.8,53.2,49.9,48.4,47.0,85,74,62,29.99,29.91,9,4,14,0.00
2014-1-3,68.6,58.8,52.3,56.4,50.0,45.9,90,74,51,30.06,29.95,9,3,13,0.00
2014-1-4,63.9,56.6,51.5,55.3,51.4,38.1,91,83,60,30.04,29.74,16,6,24,0.13
2014-1-5,58.5,53.6,49.5,44.2,37.9,33.8,62,55,45,30.06,29.84,11,7,16,0.00
2014-1-6,65.2,55.4,49.4,53.6,47.4,42.4,89,75,59,30.08,30.00,6,2,9,0.00
2014-1-7,61.8,53.4,46.8,53.8,46.8,33.3,90,79,48,30.19,30.07,5,2,10,0.00
2014-1-8,69.3,54.4,46.5,45.4,37.4,31.5,66,54,31,30.23,30.16,4,1,6,0.00
2014-1-9,60.5,51.0,43.9,54.5,44.9,36.5,91,80,65,30.19,30.07,2,0,3,0.00
2014-1-10,63.5,53.8,48.3,54.2,49.2,46.1,95,85,67,30.08,30.00,3,1,5,0.00
2014-1-11,63.2,54.6,49.0,55.1,49.6,43.0,88,83,71,30.10,29.99,3,0,4,0.00
2014-1-12,60.3,54.1,48.4,54.8,49.2,44.6,91,84,69,30.17,30.08,5,1,6,0.00
2014-1-13,58.4,52.5,46.6,53.4,47.9,40.5,92,84,66,30.16,29.92,7,2,8,0.02
2014-1-14,59.0,52.8,46.0,45.1,41.2,36.1,74,65,56,29.92,29.82,7,3,14,0.00
2014-1-15,57.1,50.9,44.0,49.6,44.6,40.1,88,79,66,30.03,29.90,6,2,9,0.01
2014-1-16,57.2,55.4,53.7,54.0,52.2,48.8,91,89,83,29.93,29.76,7,4,11,0.05
2014-1-17,57.5,52.4,47.5,51.4,47.1,44.4,91,83,63,29.76,29.67,6,3,9,0.15
2014-1-18,57.5,54.1,52.1,53.0,50.2,48.0,92,87,77,29.67,29.41,8,3,11,0.19
2014-1-19,57.2,50.4,46.5,48.6,45.3,42.3,95,83,59,29.52,29.32,7,2,9,0.71
2014-1-20,51.5,49.5,47.6,44.8,38.9,36.8,87,67,59,29.87,29.53,12,6,20,0.09
2014-1-21,54.1,49.5,45.2,40.3,38.5,37.1,78,66,56,29.97,29.85,10,4,17,0.01
2014-1-22,52.5,49.1,45.4,49.4,44.5,39.8,89,84,74,29.91,29.78,5,1,9,0.08
2014-1-23,54.2,49.9,45.0,45.4,43.1,39.5,91,78,64,30.17,29.89,8,3,15,0.15
2014-1-24,57.9,53.9,51.1,45.6,42.5,39.1,72,65,56,30.16,29.87,13,6,24,0.00
2014-1-25,59.0,55.0,50.0,51.7,48.1,44.6,86,78,68,30.09,29.87,10,2,14,0.00
2014-1-26,67.5,57.1,49.5,49.6,45.9,40.8,87,67,42,30.13,29.85,8,3,10,0.00
2014-1-27,61.7,56.8,50.2,46.8,40.3,33.5,83,55,38,29.84,29.66,16,7,27,0.01
2014-1-28,54.0,50.8,47.7,41.3,36.5,32.6,66,58,47,29.74,29.48,12,7,19,0.02
2014-1-29,57.6,53.2,48.7,43.4,41.8,39.7,79,66,53,29.48,29.41,10,4,16,0.00
2014-1-30,52.1,47.7,45.0,45.8,41.2,38.1,87,79,63,29.73,29.45,8,2,12,0.36
2014-1-31,57.6,49.2,43.6,43.0,39.3,36.8,82,69,55,29.88,29.71,6,2,15,0.00
2014-2-1,56.0,50.3,42.1,50.2,44.6,36.9,88,81,62,29.89,29.69,15,3,18,0.03
2014-2-2,55.5,49.2,45.0,41.9,37.2,35.3,77,63,51,29.99,29.77,9,4,17,0.00
2014-2-3,57.0,48.5,39.9,45.5,40.0,34.5,85,73,49,29.98,29.80,9,3,13,0.00
2014-2-4,59.2,51.7,48.1,45.4,39.0,33.3,79,63,39,29.99,29.85,8,5,12,0.02
2014-2-5,61.1,54.6,49.3,53.2,46.9,33.9,90,76,45,29.97,29.73,10,6,18,0.20
2014-2-6,62.9,54.8,46.6,52.2,45.0,35.9,89,70,52,29.99,29.83,6,3,12,0.00
2014-2-7,61.1,56.1,52.1,52.8,44.3,36.3,88,65,48,30.01,29.76,10,5,21,0.06
2014-2-8,60.2,55.0,52.0,50.3,44.6,37.1,84,68,53,29.99,29.71,14,8,21,0.00
2014-2-9,61.1,54.6,49.9,51.2,42.7,36.6,90,65,44,29.92,29.55,9,3,19,0.08
2014-2-10,56.7,51.7,45.7,53.4,45.2,39.6,92,79,59,29.82,28.67,14,6,17,1.48
2014-2-11,53.7,49.3,45.2,42.4,39.0,33.9,89,68,48,29.97,29.82,14,6,22,0.01
2014-2-12,63.6,53.0,44.2,44.8,39.7,30.5,81,63,31,30.03,29.84,10,4,14,0.00
2014-2-13,68.8,58.4,47.4,52.8,48.6,44.0,91,71,44,30.00,29.86,12,5,18,0.00
2014-2-14,70.3,60.5,52.0,56.6,51.8,47.4,86,73,59,29.98,29.82,9,4,11,0.00
2014-2-15,67.2,58.3,51.4,56.1,51.5,46.2,90,79,59,29.87,29.78,7,3,13,0.00
2014-2-16,64.2,55.8,50.4,54.0,47.6,42.7,87,74,67,29.97,29.83,5,1,7,0.00
2014-2-17,59.7,53.1,48.5,49.8,47.8,45.4,90,83,68,29.97,29.85,4,1,8,0.00
2014-2-18,64.1,56.2,49.3,53.8,48.7,41.5,84,76,68,29.85,29.58,8,3,12,0.02
2014-2-19,61.2,54.0,46.1,49.5,45.0,40.9,84,72,59,30.11,29.78,13,3,24,0.02
2014-2-20,68.7,54.1,44.4,45.9,41.2,38.2,81,64,38,30.10,29.95,6,2,13,0.00
2014-2-21,65.8,53.6,46.3,51.5,44.2,40.8,83,72,53,30.10,29.91,8,2,15,0.00
2014-2-22,60.7,50.1,44.4,47.0,39.7,35.1,88,69,42,30.23,30.07,7,2,10,0.00
2014-2-23,64.3,51.5,42.6,42.9,37.7,32.7,81,61,34,30.23,30.07,4,2,7,0.00
2014-2-24,63.8,52.9,45.6,49.0,45.0,40.4,84,75,54,30.07,29.98,4,1,5,0.00
2014-2-25,63.6,53.4,46.6,51.7,45.6,42.3,89,75,59,30.07,30.00,8,3,13,0.00
2014-2-26,59.0,53.1,45.6,45.2,38.1,33.3,72,57,43,30.25,30.00,10,4,16,0.00
2014-2-27,59.5,50.3,41.9,45.4,38.3,31.8,84,65,41,30.30,30.19,6,2,9,0.00
2014-2-28,60.4,52.2,46.8,47.1,41.1,35.0,78,66,52,30.19,29.75,14,6,23,0.02
2014-3-1,57.3,51.6,48.5,46.1,39.7,35.2,85,64,51,29.84,29.48,14,6,28,0.01
2014-3-2,62.5,54.1,45.6,50.3,44.3,40.1,84,70,53,29.66,29.48,9,2,11,0.01
2014-3-3,62.1,56.0,53.0,51.5,41.5,32.6,86,60,43,29.62,29.44,16,7,22,0.07
2014-3-4,55.4,52.8,49.6,40.8,38.9,34.9,66,59,50,29.81,29.57,14,8,27,0.00
2014-3-5,63.2,54.6,49.0,45.5,39.7,30.6,68,58,34,30.07,29.75,7,2,11,0.00
2014-3-6,60.3,52.8,46.1,45.5,38.0,33.5,71,58,41,30.18,30.07,7,2,10,0.06
2014-3-7,69.5,55.4,45.7,42.9,34.3,28.9,64,46,30,30.25,30.18,6,2,7,0.00
2014-3-8,70.5,56.5,46.2,40.0,34.0,28.7,63,44,27,30.25,30.19,4,2,8,0.00
2014-3-9,63.4,54.5,47.3,46.4,41.7,30.6,76,63,40,30.28,30.22,6,2,8,0.00
2014-3-10,69.0,53.3,43.2,44.7,38.4,33.9,81,60,31,30.21,30.04,6,2,8,0.00
2014-3-11,63.3,53.7,46.3,45.3,38.1,32.2,78,56,38,30.20,30.05,7,2,9,0.00
2014-3-12,60.8,53.3,45.8,47.3,44.3,39.3,82,72,52,30.27,30.20,6,2,8,0.00
2014-3-13,60.4,53.6,49.3,50.9,46.2,41.9,89,76,59,30.26,30.20,6,3,10,0.15
2014-3-14,61.1,52.8,47.7,45.3,40.2,37.3,72,63,51,30.24,30.16,6,1,9,0.00
2014-3-15,70.2,57.2,43.7,45.4,40.3,36.4,77,55,38,30.24,30.15,7,2,11,0.00
2014-3-16,75.6,63.6,53.2,46.7,41.2,35.8,64,45,30,30.17,30.06,10,4,19,0.00
2014-3-17,74.8,61.7,51.9,52.4,43.5,39.0,65,53,32,30.17,30.11,6,2,8,0.00
2014-3-18,76.0,60.8,50.7,46.4,41.9,37.4,66,51,34,30.16,30.08,5,2,9,0.00
2014-3-19,66.3,58.1,52.6,52.7,48.4,40.1,85,71,58,30.19,30.11,6,2,9,0.00
2014-3-20,68.4,57.6,47.8,52.4,48.7,44.4,89,74,53,30.13,30.07,6,2,9,0.00
2014-3-21,67.0,56.3,48.3,52.1,48.4,44.3,88,76,54,30.13,30.06,5,2,9,0.00
2014-3-22,59.0,56.3,54.4,56.1,52.3,48.8,92,87,81,30.06,29.80,6,4,10,0.02
2014-3-23,57.8,53.7,50.3,51.6,38.2,34.6,83,56,45,30.05,29.80,13,7,18,0.01
2014-3-24,65.2,56.4,48.5,48.0,38.7,31.9,76,53,31,30.06,29.87,9,4,17,0.00
2014-3-25,58.9,53.6,47.3,47.7,41.8,33.8,81,65,42,29.95,29.69,13,5,22,0.37
2014-3-26,52.9,47.9,43.0,41.9,39.3,37.3,83,72,59,29.82,29.62,10,4,16,0.38
2014-3-27,57.0,48.9,44.3,46.1,41.9,39.1,88,77,60,29.91,29.77,7,2,10,0.01
2014-3-28,61.2,51.6,40.7,46.9,42.7,36.2,86,73,50,29.94,29.87,7,2,14,0.00
2014-3-29,59.6,55.9,52.7,50.6,48.6,44.8,81,77,70,29.89,29.70,7,4,11,0.00
2014-3-30,57.1,54.7,52.5,54.2,51.0,47.2,91,87,81,29.94,29.75,4,1,8,0.12
2014-3-31,66.5,56.6,49.6,55.1,50.7,46.6,92,81,64,30.00,29.92,5,2,7,0.00
2014-4-1,71.0,58.7,46.0,50.2,45.8,40.7,85,64,44,29.98,29.85,5,1,9,0.00
2014-4-2,74.4,64.6,55.9,51.8,45.9,43.0,68,52,35,29.85,29.54,4,1,10,0.00
2014-4-3,69.0,56.7,52.0,53.4,50.1,44.3,89,80,41,29.56,29.40,10,4,13,0.35
2014-4-4,64.0,56.4,51.5,50.8,47.2,41.9,89,73,52,29.88,29.43,12,6,21,1.98
2014-4-5,73.9,62.3,51.4,51.8,47.0,42.1,73,58,40,30.04,29.87,8,2,14,0.00
2014-4-6,74.6,62.1,53.1,56.3,50.2,45.9,84,66,48,30.09,30.01,6,2,9,0.00
2014-4-7,75.8,60.9,49.5,57.1,50.4,46.1,89,71,40,30.12,30.06,6,2,10,0.00
2014-4-8,77.6,63.1,52.3,54.3,48.8,45.2,80,62,33,30.19,30.09,6,2,10,0.00
2014-4-9,73.4,62.2,54.0,53.6,49.6,44.2,82,64,47,30.19,30.09,5,2,8,0.00
2014-4-10,72.8,62.1,51.9,57.4,50.8,48.2,89,68,44,30.11,30.02,6,2,10,0.00
2014-4-11,72.9,62.6,54.0,55.5,47.3,39.5,83,60,32,30.06,29.90,7,2,10,0.02
2014-4-12,74.8,64.0,56.4,58.0,52.9,43.4,86,69,47,30.00,29.84,6,2,8,0.02
2014-4-13,75.5,63.7,53.6,55.3,50.6,44.6,82,64,45,30.08,29.99,6,2,11,0.00
2014-4-14,75.9,64.0,54.7,56.9,51.9,48.6,83,66,43,30.09,29.98,5,2,7,0.00
2014-4-15,75.6,64.0,55.1,54.6,50.9,47.2,77,64,44,29.99,29.92,4,1,5,0.00
2014-4-16,78.7,63.0,52.2,53.4,44.7,32.8,80,55,30,30.08,29.98,5,2,8,0.00
2014-4-17,72.7,60.6,50.8,54.5,46.2,32.8,82,60,46,30.09,29.99,6,2,8,0.00
2014-4-18,75.6,62.0,49.6,55.2,49.0,40.3,84,65,38,29.99,29.78,8,3,14,0.00
2014-4-19,81.2,65.1,56.1,55.9,47.6,37.1,80,57,21,29.78,29.62,9,4,17,0.00
2014-4-20,69.9,62.8,56.7,58.5,51.6,44.6,88,68,44,29.68,29.50,9,3,14,0.00
2014-4-21,74.8,62.6,55.1,57.9,52.8,47.1,86,72,41,29.68,29.55,8,3,14,0.00
2014-4-22,74.6,63.2,53.9,57.9,52.1,49.1,86,69,47,30.01,29.68,7,2,11,0.00
2014-4-23,75.1,63.9,54.6,57.5,53.0,49.1,85,69,46,30.08,30.01,6,2,11,0.00
2014-4-24,76.0,63.5,54.9,55.4,50.6,40.0,85,65,29,30.08,29.88,7,2,10,0.00
2014-4-25,62.0,57.6,52.8,54.4,49.3,40.6,86,74,49,30.00,29.77,9,3,14,0.62
2014-4-26,71.9,62.9,53.7,53.6,44.6,38.5,78,52,36,30.00,29.85,8,3,11,0.00
2014-4-27,67.2,60.5,52.7,54.1,46.7,37.2,85,63,34,29.96,29.80,10,4,16,0.02
2014-4-28,69.9,62.3,53.5,50.0,45.4,39.2,79,55,42,29.96,29.87,10,4,15,0.00
2014-4-29,78.4,67.7,58.0,55.0,51.0,45.8,79,56,41,29.95,29.87,6,2,8,0.00
2014-4-30,76.3,65.3,55.3,57.3,50.9,44.8,85,63,34,29.95,29.86,7,2,11,0.00
2014-5-1,72.6,63.8,56.2,57.4,54.7,51.1,85,73,56,29.97,29.92,7,3,12,0.00
2014-5-2,71.3,61.5,56.4,54.0,50.8,44.3,85,69,49,29.95,29.84,13,5,21,0.00
2014-5-3,75.7,63.7,52.1,54.6,46.4,38.2,86,57,31,29.95,29.87,8,3,13,0.00
2014-5-4,72.9,61.0,52.6,54.5,50.4,46.3,83,69,50,29.98,29.90,6,2,11,0.00
2014-5-5,74.9,62.3,49.9,52.7,48.6,42.1,84,63,40,30.03,29.96,6,2,11,0.00
2014-5-6,79.3,65.3,51.8,57.1,48.1,42.5,74,56,35,30.07,30.02,6,2,9,0.00
2014-5-7,82.7,66.8,54.7,59.0,46.3,30.1,80,50,24,30.08,29.99,7,1,9,0.00
2014-5-8,76.9,66.4,56.4,57.2,54.0,50.2,85,65,46,30.11,30.05,5,2,7,0.00
2014-5-9,82.0,68.6,59.9,59.0,53.6,50.3,80,61,35,30.12,30.05,6,2,10,0.00
2014-5-10,79.8,69.5,59.1,56.1,48.4,40.7,74,50,29,30.11,29.99,7,3,10,0.00
2014-5-11,81.7,69.7,60.6,57.7,49.7,42.8,80,51,31,30.04,29.94,5,2,8,0.01
2014-5-12,78.1,67.2,59.7,56.6,51.4,46.6,80,58,40,30.05,29.92,5,2,11,0.00
2014-5-13,65.5,60.4,55.3,52.8,49.6,45.6,78,68,58,30.24,29.96,6,2,9,0.00
2014-5-14,70.4,60.9,52.3,52.9,49.6,46.0,81,67,48,30.29,30.24,6,2,9,0.00
2014-5-15,73.1,62.6,53.1,50.8,47.4,44.0,81,59,38,30.28,30.11,7,2,10,0.00
2014-5-16,72.2,62.6,53.7,50.3,45.7,40.2,74,55,37,30.14,29.98,6,2,8,0.00
2014-5-17,72.9,62.5,51.0,50.0,43.1,32.7,76,51,32,30.02,29.92,7,2,16,0.00
2014-5-18,62.6,59.2,56.1,54.2,48.3,41.5,87,68,57,29.95,29.80,5,1,7,0.05
2014-5-19,73.8,63.5,53.0,56.5,52.3,48.5,89,69,42,29.85,29.73,7,3,12,0.03
2014-5-20,77.6,66.3,56.3,63.8,56.7,44.4,88,72,61,29.85,29.78,6,2,9,0.06
2014-5-21,77.1,69.6,62.4,62.9,59.1,53.3,85,70,45,29.84,29.73,8,3,14,0.00
2014-5-22,74.3,66.6,61.1,59.1,51.5,37.7,86,62,31,29.93,29.80,10,4,15,0.00
2014-5-23,76.2,67.2,56.7,57.5,47.8,41.4,70,51,33,29.96,29.89,8,4,12,0.00
2014-5-24,76.6,65.4,54.8,56.6,50.1,41.0,73,58,45,30.00,29.93,5,2,10,0.00
2014-5-25,74.9,64.6,57.7,55.4,52.6,46.0,80,66,47,30.03,29.93,5,2,11,0.01
2014-5-26,71.7,62.6,54.5,59.7,54.7,50.1,87,76,61,30.08,29.98,7,2,8,0.04
2014-5-27,76.8,64.2,53.8,59.0,54.2,49.1,86,72,44,30.09,29.98,7,2,11,0.00
2014-5-28,72.6,64.2,59.0,61.3,56.3,51.1,85,76,58,30.01,29.86,8,2,9,0.12
2014-5-29,69.0,62.8,57.0,58.3,55.2,51.6,90,77,61,30.04,29.84,5,2,5,0.17
2014-5-30,74.9,65.4,55.9,60.7,53.8,48.6,86,68,42,30.04,29.96,4,2,7,0.02
2014-5-31,76.0,65.1,56.0,57.4,53.5,49.0,86,68,40,30.04,29.97,6,2,8,0.00
2014-6-1,74.0,65.9,56.7,54.0,51.0,47.1,79,59,48,30.04,29.96,8,3,13,0.00
2014-6-2,77.0,69.0,61.2,55.2,50.5,46.5,64,52,40,30.04,29.94,8,4,14,0.00
2014-6-3,76.6,66.9,57.0,61.3,52.5,43.0,84,61,37,30.04,29.93,8,3,16,0.00
2014-6-4,82.9,70.5,57.3,63.0,57.5,51.1,85,66,41,29.94,29.82,6,3,9,0.00
2014-6-5,85.9,72.5,61.7,62.7,57.3,47.3,87,62,38,29.91,29.86,6,2,8,0.00
2014-6-6,89.7,76.0,65.3,54.3,49.6,46.4,57,41,26,29.96,29.89,5,2,8,0.00
2014-6-7,97.3,81.9,68.3,59.8,52.0,43.3,51,37,22,29.97,29.89,6,2,10,0.00
2014-6-8,98.6,83.9,72.4,65.9,54.4,45.7,52,37,23,30.01,29.96,7,2,11,0.00
2014-6-9,94.6,81.9,71.8,59.0,52.1,46.1,47,36,27,30.00,29.91,5,2,8,0.00
2014-6-10,92.6,79.5,65.5,56.5,52.4,47.7,58,41,25,30.03,29.94,6,2,8,0.00
2014-6-11,90.8,79.9,67.9,57.7,54.4,51.0,57,43,28,30.11,30.01,5,2,10,0.00
2014-6-12,93.7,80.3,69.8,58.3,54.4,51.4,55,42,28,30.11,30.04,7,2,13,0.00
2014-6-13,94.8,80.8,68.4,62.8,54.7,48.5,55,42,28,30.08,29.91,5,2,9,0.00
2014-6-14,93.3,80.0,70.7,59.3,54.8,50.9,60,43,30,29.94,29.78,6,2,10,0.00
2014-6-15,76.7,71.1,65.0,62.5,56.9,49.9,79,62,47,29.90,29.82,8,3,10,0.04
2014-6-16,79.2,71.2,65.2,59.8,53.5,50.3,73,54,42,29.94,29.88,5,2,10,0.04
2014-6-17,83.2,69.6,61.7,60.1,55.3,51.2,77,62,35,29.97,29.89,6,2,8,0.19
2014-6-18,78.4,70.3,60.5,62.9,58.7,53.6,82,68,51,30.03,29.92,11,2,12,0.21
2014-6-19,84.3,72.6,61.7,61.6,54.7,50.7,81,55,38,30.05,29.98,5,2,9,0.00
2014-6-20,90.2,75.9,63.6,60.7,54.5,48.4,62,49,31,30.03,29.88,6,2,9,0.00
2014-6-21,89.5,76.4,66.2,69.3,57.0,43.3,84,53,28,29.95,29.87,6,2,9,0.00
2014-6-22,88.8,75.7,65.9,69.3,65.6,59.1,84,72,47,30.02,29.90,5,2,9,0.00
2014-6-23,88.7,78.2,69.9,69.4,65.0,60.1,87,66,43,30.04,29.88,6,2,8,0.01
2014-6-24,87.0,75.6,67.9,66.7,63.4,58.2,82,67,47,29.93,29.79,7,2,12,0.00
2014-6-25,82.6,73.6,65.0,62.7,59.8,54.2,83,64,39,29.88,29.78,8,4,12,0.00
2014-6-26,85.3,74.2,64.0,62.2,58.1,54.8,79,59,43,30.00,29.84,5,2,9,0.00
2014-6-27,86.9,74.1,66.2,67.0,58.9,54.2,73,60,41,30.04,29.98,6,2,10,0.00
2014-6-28,95.2,84.7,72.7,68.3,64.2,55.5,70,53,27,29.86,29.80,6,3,14,0.00
2014-6-29,79.1,73.8,66.1,67.5,60.9,55.1,83,65,47,30.05,29.78,8,3,13,0.00
2014-6-30,81.3,71.6,62.8,64.6,59.4,52.6,80,66,39,30.07,29.98,7,3,12,0.00
2014-7-1,87.7,76.0,65.7,65.5,57.2,48.5,76,54,28,30.00,29.86,7,2,11,0.00
2014-7-2,86.8,75.5,65.5,66.6,62.6,59.0,82,66,43,30.03,29.86,6,2,9,0.00
2014-7-3,88.0,78.0,70.0,69.0,64.3,57.2,83,64,43,30.02,29.85,7,3,13,0.00
2014-7-4,86.3,77.9,70.1,68.0,57.5,49.5,83,52,30,29.99,29.80,10,4,11,0.00
2014-7-5,88.7,77.7,68.0,66.2,58.3,52.0,71,52,35,29.99,29.92,7,3,12,0.00
2014-7-6,86.8,76.9,66.3,66.4,57.6,48.3,79,52,39,29.94,29.82,7,3,10,0.00
2014-7-7,83.8,75.0,68.8,68.1,64.5,60.4,84,71,52,30.00,29.81,6,2,8,0.00
2014-7-8,83.9,74.0,63.7,64.7,61.2,56.6,88,67,44,30.03,29.96,6,2,10,0.00
2014-7-9,81.1,73.1,65.9,63.6,57.1,51.0,78,59,36,30.01,29.92,8,3,19,0.00
2014-7-10,80.8,72.9,64.0,59.3,54.6,49.2,77,55,37,30.00,29.90,7,3,14,0.00
2014-7-11,84.7,74.1,62.8,60.9,53.4,48.8,68,51,31,29.98,29.89,7,2,10,0.00
2014-7-12,83.1,74.0,64.9,63.0,59.2,55.7,78,61,44,30.00,29.91,6,2,8,0.00
2014-7-13,86.3,74.7,64.5,65.2,60.4,56.4,79,63,41,30.00,29.92,6,2,9,0.00
2014-7-14,87.5,75.7,68.0,68.4,64.8,61.2,82,70,44,30.03,29.94,7,2,11,0.00
2014-7-15,86.7,76.7,66.3,67.8,64.6,60.6,84,68,48,30.07,30.03,6,2,8,0.00
2014-7-16,91.8,78.7,68.1,67.2,64.7,62.6,85,64,40,30.08,30.03,6,2,8,0.00
2014-7-17,92.5,80.0,69.7,71.2,64.3,51.4,79,60,44,30.07,30.01,6,2,9,0.00
2014-7-18,98.7,83.3,69.4,61.3,53.3,47.8,50,37,24,30.02,29.89,5,2,13,0.00
2014-7-19,93.8,85.0,76.4,71.9,61.2,46.6,69,45,30,29.89,29.78,6,3,9,0.00
2014-7-20,89.0,80.3,73.1,71.1,61.3,51.7,88,56,32,29.97,29.74,8,3,11,0.00
2014-7-21,89.2,76.6,67.5,65.6,59.5,48.4,73,57,25,30.01,29.96,7,2,12,0.00
2014-7-22,90.8,78.8,66.7,63.4,59.2,53.6,79,54,30,30.01,29.86,6,2,12,0.00
2014-7-23,88.8,78.8,68.2,61.7,58.2,54.3,68,51,33,29.92,29.81,6,2,10,0.00
2014-7-24,96.6,81.4,68.9,66.9,61.0,54.6,68,52,31,29.85,29.78,7,2,12,0.00
2014-7-25,90.1,80.2,71.3,61.5,57.3,49.1,60,46,33,29.85,29.77,6,2,11,0.00
2014-7-26,89.5,79.7,69.4,65.5,59.1,53.2,70,51,35,29.96,29.82,8,2,14,0.00
2014-7-27,92.2,81.3,73.0,63.5,58.5,54.0,64,47,31,29.98,29.93,7,2,11,0.00
2014-7-28,90.0,80.3,72.1,64.5,60.7,56.7,67,53,35,29.98,29.81,6,2,11,0.00
2014-7-29,77.5,73.5,67.7,66.4,60.9,55.0,81,65,49,29.94,29.76,6,2,11,0.00
2014-7-30,84.5,75.1,66.1,65.1,60.5,55.8,78,62,43,29.95,29.86,8,3,10,0.00
2014-7-31,87.4,76.1,65.2,66.8,60.9,50.6,76,60,44,29.93,29.85,7,3,11,0.00
2014-8-1,90.0,78.8,69.7,69.1,64.8,56.9,80,63,40,29.89,29.73,6,3,10,0.00
2014-8-2,88.8,78.6,70.8,71.4,66.7,60.2,84,68,48,29.80,29.68,7,2,12,0.00
2014-8-3,91.0,79.2,69.3,69.7,64.2,57.1,80,62,43,29.88,29.79,6,2,10,0.00
2014-8-4,92.2,79.2,67.2,71.2,65.6,55.7,80,64,47,29.97,29.88,7,2,14,0.00
2014-8-5,87.7,77.3,68.8,70.4,67.0,60.8,81,71,50,30.02,29.95,4,2,9,0.00
2014-8-6,88.8,79.5,71.5,69.0,67.6,62.6,85,68,47,30.02,29.94,7,2,10,0.00
2014-8-7,90.5,79.5,70.6,70.9,66.9,63.9,85,67,44,29.99,29.92,6,2,11,0.00
2014-8-8,94.0,81.6,70.3,69.1,62.9,54.8,72,54,36,29.95,29.82,6,2,9,0.00
2014-8-9,95.6,83.4,71.7,71.5,64.1,56.3,82,54,33,29.87,29.77,6,2,9,0.00
2014-8-10,98.3,82.1,71.5,74.0,68.5,58.2,83,65,35,29.85,29.78,7,2,11,0.00
2014-8-11,97.0,81.3,72.0,75.4,71.5,66.9,86,74,46,29.93,29.84,7,2,13,0.00
2014-8-12,89.0,79.5,74.7,72.2,69.9,68.2,86,73,55,29.94,29.84,5,2,7,0.00
2014-8-13,88.7,77.3,71.2,71.5,67.3,60.1,85,72,54,29.94,29.73,9,4,16,0.00
2014-8-14,81.9,74.5,70.1,62.7,61.0,58.6,71,63,51,30.03,29.94,4,2,7,0.00
2014-8-15,78.5,71.6,67.2,67.6,64.2,60.2,88,78,62,30.06,30.02,4,1,5,0.16
2014-8-16,70.3,67.9,65.4,66.1,63.3,59.3,90,85,75,30.14,30.03,4,1,5,0.33
2014-8-17,83.0,71.8,61.6,62.9,59.7,56.0,85,67,46,30.14,29.98,6,2,9,0.00
2014-8-18,86.9,74.0,62.7,64.3,60.4,53.5,80,64,44,29.99,29.80,5,2,9,0.00
2014-8-19,89.3,76.8,66.9,69.4,65.5,59.5,83,69,49,29.93,29.77,6,2,9,0.00
2014-8-20,86.7,77.8,70.3,69.6,67.5,65.2,85,72,53,29.97,29.89,6,2,8,0.00
2014-8-21,87.0,77.4,71.3,69.4,68.1,66.2,86,74,55,29.98,29.91,5,2,8,0.00
2014-8-22,88.2,77.3,69.2,69.6,67.6,64.8,88,73,53,29.97,29.86,6,2,10,0.00
2014-8-23,82.3,74.6,67.8,67.2,63.8,60.8,85,70,56,30.09,29.90,7,2,9,0.00
2014-8-24,85.8,74.5,65.9,65.5,62.8,59.7,81,68,48,30.10,30.01,6,2,11,0.00
2014-8-25,89.7,77.0,66.9,67.6,58.7,50.1,81,55,32,30.06,29.95,6,2,11,0.00
2014-8-26,92.5,79.8,68.5,65.6,57.2,46.9,62,47,32,29.97,29.84,6,3,10,0.00
2014-8-27,96.5,81.4,69.3,69.5,57.8,42.4,66,45,33,29.93,29.87,6,2,8,0.00
2014-8-28,93.9,81.1,70.4,71.3,64.5,59.8,82,59,39,29.97,29.93,6,2,9,0.00
2014-8-29,91.1,80.4,70.5,68.3,59.1,42.9,74,49,36,29.98,29.92,6,2,9,0.00
2014-8-30,88.3,78.7,71.3,69.0,67.2,61.7,82,69,51,29.99,29.94,7,2,10,0.00
2014-8-31,87.3,78.6,72.5,68.2,65.3,57.9,81,65,49,30.01,29.94,5,2,9,0.00
2014-9-1,90.3,78.4,69.3,70.0,66.9,63.3,83,69,46,29.97,29.87,6,1,10,0.00
2014-9-2,89.7,78.0,67.3,70.0,65.4,57.3,85,66,45,29.92,29.83,6,2,8,0.00
2014-9-3,88.1,77.8,68.9,68.8,64.3,58.3,82,65,40,29.89,29.80,7,2,8,0.00
2014-9-4,89.3,78.6,69.6,69.0,66.8,64.5,85,69,47,29.91,29.84,6,2,10,0.00
2014-9-5,90.0,78.7,69.5,69.1,65.7,61.2,83,66,45,29.92,29.85,5,2,11,0.00
2014-9-6,88.4,77.3,68.8,70.6,66.0,59.8,84,69,46,29.90,29.83,6,2,10,0.00
2014-9-7,88.5,78.5,71.5,71.5,68.1,56.9,88,72,53,29.89,29.82,7,2,10,0.00
2014-9-8,94.2,78.5,68.1,72.3,66.0,57.0,79,66,41,29.95,29.85,7,2,7,0.00
2014-9-9,91.0,80.1,70.3,72.2,65.7,57.9,80,63,39,29.95,29.89,6,2,10,0.00
2014-9-10,90.7,79.8,70.4,70.2,63.3,55.6,81,59,35,29.93,29.82,6,2,11,0.00
2014-9-11,90.9,80.4,72.0,74.3,70.1,63.4,84,72,48,29.85,29.77,7,4,11,0.00
2014-9-12,92.6,78.0,69.7,71.8,66.3,56.2,82,68,47,29.95,29.81,8,2,10,0.04
2014-9-13,88.1,78.1,69.7,71.0,67.5,62.4,87,71,52,29.97,29.93,7,2,12,0.00
2014-9-14,88.2,77.1,68.6,69.4,62.6,51.4,82,62,47,29.94,29.84,5,2,8,0.00
2014-9-15,92.0,79.2,70.1,70.1,67.1,64.3,84,68,46,29.88,29.80,5,2,7,0.00
2014-9-16,90.5,78.0,69.4,70.0,66.8,63.7,83,70,43,29.87,29.75,7,2,12,0.00
2014-9-17,89.9,79.1,72.0,70.2,66.7,63.0,83,67,45,29.82,29.69,7,2,9,0.00
2014-9-18,87.1,77.6,71.2,69.4,66.5,60.2,81,69,54,29.83,29.73,6,2,8,0.00
2014-9-19,86.7,77.1,71.3,71.0,66.7,56.3,80,71,54,29.94,29.77,6,2,9,0.00
2014-9-20,90.9,79.5,71.3,69.8,63.5,55.6,71,59,48,30.00,29.90,6,2,9,0.00
2014-9-21,88.8,77.6,71.3,70.3,66.1,61.5,78,68,50,30.03,29.95,6,1,8,0.00
2014-9-22,76.9,71.8,67.5,70.4,66.4,64.4,90,83,67,29.97,29.81,5,1,13,0.17
2014-9-23,78.2,68.1,62.7,67.0,62.8,59.6,92,84,63,29.92,29.83,5,1,7,0.71
2014-9-24,80.5,69.6,62.4,67.0,63.2,59.7,92,81,56,29.95,29.89,5,1,8,0.27
2014-9-25,72.5,67.8,64.4,58.5,55.0,52.7,68,64,58,30.13,30.05,6,2,8,0.30
2014-9-26,75.5,67.6,60.9,59.5,56.6,53.6,81,68,57,30.18,30.10,4,1,8,0.00
2014-9-27,80.0,38.7,59.1,62.3,31.0,53.4,83,33,48,30.19,30.13,5,1,9,0.00
2014-9-28,-200.0,0.0,200.0,-99.9,0.0,200.0,0,0,100,30.17,30.05,0,0,0,0.00
2014-9-29,81.6,19.9,67.5,71.4,18.5,65.1,92,23,64,30.15,30.09,2,0,4,0.03
2014-9-30,80.9,33.5,67.7,70.4,29.7,64.0,93,33,62,30.19,30.08,5,1,7,0.06
2014-10-1,77.3,25.8,65.6,65.9,22.5,62.3,89,26,66,30.21,30.15,6,1,8,0.00
2014-10-2,79.3,32.6,65.2,65.6,27.1,56.8,86,28,49,30.19,30.12,6,1,9,0.00
2014-10-3,79.8,32.6,62.3,63.0,25.6,56.6,80,25,52,30.15,30.03,5,1,9,0.00
2014-10-4,82.7,33.4,61.8,63.4,26.2,56.9,84,25,45,30.05,29.95,4,1,5,0.00
2014-10-5,76.7,29.9,63.7,63.1,24.9,57.4,81,27,57,29.99,29.93,3,0,5,0.00
2014-10-6,79.0,31.4,63.7,66.1,26.7,60.4,90,29,55,29.96,29.85,5,1,8,0.00
2014-10-7,80.8,33.2,69.2,68.1,28.8,64.5,85,31,62,29.89,29.83,6,2,10,0.00
2014-10-8,81.3,21.8,62.6,66.7,18.9,57.6,85,21,57,29.91,29.83,5,1,11,0.00
2014-10-9,81.4,26.6,63.4,69.0,22.7,57.7,82,24,59,29.89,29.82,6,1,10,0.00
2014-10-10,80.3,24.9,67.1,68.7,21.9,62.8,87,24,66,29.91,29.84,6,1,10,0.00
2014-10-11,85.0,33.2,64.5,68.4,28.0,59.2,83,29,50,29.92,29.83,5,1,11,0.00
2014-10-12,79.8,30.2,71.0,70.8,25.5,63.0,83,26,57,29.85,29.75,7,1,12,0.00
2014-10-13,76.0,28.2,66.6,57.5,21.4,51.6,71,21,46,29.84,29.79,9,2,13,0.00
2014-10-14,67.7,10.5,63.0,62.8,9.8,58.5,87,14,81,29.82,29.68,6,0,8,0.02
2014-10-15,73.6,30.9,58.2,62.8,25.7,55.3,90,30,55,29.91,29.75,5,1,13,0.00
2014-10-16,77.5,32.6,63.6,65.8,28.4,59.0,88,32,62,29.99,29.89,7,2,13,0.00
2014-10-17,81.7,34.6,66.9,66.6,28.4,62.3,87,28,55,30.07,29.96,6,2,9,0.00
2014-10-18,89.6,38.5,63.4,62.3,26.3,53.8,71,20,31,30.13,30.05,5,1,8,0.00
2014-10-19,90.0,36.0,66.5,61.7,24.5,51.3,59,18,32,30.18,30.11,3,0,3,0.00
2014-10-20,88.1,34.5,64.3,59.7,23.6,51.4,65,18,30,30.17,30.07,5,1,7,0.00
2014-10-21,85.8,34.9,62.2,55.1,22.6,48.5,62,17,30,30.07,30.01,7,2,11,0.00
2014-10-22,71.3,38.0,59.5,58.4,31.9,53.0,79,40,60,30.19,29.98,6,2,9,0.08
2014-10-23,76.6,65.8,57.6,57.7,46.2,30.9,85,55,24,30.19,29.98,8,2,12,0.00
2014-10-24,80.9,68.1,58.5,57.1,45.4,36.4,66,45,29,30.02,29.95,6,2,8,0.00
2014-10-25,86.1,71.1,62.3,54.9,49.2,42.7,62,47,30,30.12,29.99,4,1,6,0.00
2014-10-26,82.3,69.7,60.9,60.2,53.9,47.5,81,58,39,30.14,30.08,4,1,6,0.00
2014-10-27,74.6,65.7,59.1,61.0,56.4,50.8,82,72,61,30.14,30.07,5,1,8,0.00
2014-10-28,74.4,64.3,58.8,61.5,56.9,54.0,86,78,56,30.07,29.97,3,1,5,0.02
2014-10-29,76.3,64.8,57.5,62.2,57.4,53.3,87,78,56,30.10,29.97,2,1,5,0.00
2014-10-30,76.8,65.8,58.3,62.5,58.2,54.3,88,77,60,30.19,30.10,4,1,6,0.00
2014-10-31,75.6,65.6,58.3,60.2,56.9,54.1,87,75,51,30.20,30.15,5,2,9,0.00
2014-11-1,77.7,66.3,57.5,63.2,57.7,53.7,89,75,50,30.20,30.15,4,1,4,0.00
2014-11-2,74.6,64.4,57.5,62.2,56.4,54.0,90,76,56,30.18,30.04,5,2,8,0.00
2014-11-3,74.1,65.1,58.7,61.3,57.0,51.6,88,76,49,30.04,29.71,6,2,10,0.00
2014-11-4,66.6,61.7,55.4,61.8,56.0,44.8,90,82,65,29.71,29.36,11,5,17,1.25
2014-11-5,59.5,54.2,50.7,51.9,46.8,43.8,87,76,63,29.79,29.47,6,2,15,0.21
2014-11-6,61.5,53.4,47.7,53.3,47.1,43.8,89,79,62,29.91,29.77,4,1,6,0.07
2014-11-7,71.1,59.8,51.2,54.5,49.7,45.6,82,70,53,29.94,29.83,7,2,11,0.01
2014-11-8,70.8,61.9,56.4,59.2,53.9,50.3,83,75,64,29.95,29.77,6,1,7,0.00
2014-11-9,68.1,60.9,56.4,53.1,51.7,49.6,85,72,57,29.80,29.69,6,2,9,0.01
2014-11-10,65.4,57.8,53.3,56.3,51.5,48.5,90,80,62,29.87,29.78,3,1,5,0.06
2014-11-11,63.9,56.5,51.8,52.7,49.1,44.4,92,77,57,29.84,29.59,9,3,14,1.37
2014-11-12,65.5,60.6,54.7,54.0,50.7,46.7,92,71,51,29.88,29.57,8,4,13,0.02
2014-11-13,69.8,61.0,53.3,57.3,53.1,48.3,86,76,53,29.93,29.85,8,3,13,0.00
2014-11-14,64.9,62.1,57.2,61.5,58.5,53.7,90,88,87,29.85,29.71,7,2,8,0.01
2014-11-15,63.7,60.0,56.1,59.8,51.8,47.3,89,75,63,29.82,29.67,9,4,14,0.17
2014-11-16,63.8,59.4,56.7,52.0,48.4,45.8,81,67,56,29.85,29.76,8,5,16,0.17
2014-11-17,62.3,57.5,51.2,52.8,47.4,44.7,80,69,56,29.85,29.71,7,4,11,0.03
2014-11-18,66.4,56.7,50.4,54.1,48.0,44.8,85,74,51,29.93,29.83,5,2,9,0.00
2014-11-19,67.0,57.2,51.5,55.6,51.4,47.5,89,82,66,30.11,29.92,5,2,9,0.00
2014-11-20,71.0,60.2,52.5,60.2,55.1,49.7,92,84,68,30.13,30.05,5,1,7,0.00
2014-11-21,73.2,62.4,54.9,63.6,56.3,50.4,89,81,70,30.10,30.01,3,1,4,0.01
2014-11-22,76.4,65.8,59.0,59.7,49.5,43.5,75,56,37,30.05,29.99,5,1,7,0.00
2014-11-23,79.4,66.8,60.6,58.9,49.6,43.3,68,55,34,30.04,29.97,4,1,6,0.00
2014-11-24,75.4,64.5,59.4,61.8,56.9,52.8,87,77,57,30.02,29.95,4,1,6,0.00
2014-11-25,71.5,62.5,58.3,61.2,55.1,50.5,88,78,57,30.03,29.97,5,1,6,0.01
2014-11-26,64.1,59.6,55.9,59.0,56.2,53.1,92,89,79,29.96,29.81,5,2,8,0.40
2014-11-27,64.7,60.8,57.4,59.3,57.4,54.8,92,88,81,29.82,29.50,4,1,6,0.00
2014-11-28,67.3,62.1,56.9,59.5,55.7,53.2,91,80,64,29.49,29.34,7,2,12,0.01
2014-11-29,64.7,61.1,59.0,57.7,55.9,54.2,90,83,77,29.47,29.35,4,1,7,0.13
2014-11-30,63.8,58.9,54.8,59.1,55.2,52.2,92,88,74,29.46,29.28,6,2,9,0.13
2014-12-1,59.0,56.8,53.8,54.5,51.2,47.3,92,82,73,29.53,29.26,8,3,17,1.69
2014-12-2,56.8,54.4,52.0,50.0,48.4,45.9,88,81,71,29.76,29.53,7,2,11,0.05
2014-12-3,58.3,53.1,48.9,51.9,48.9,44.9,92,86,76,29.82,29.75,4,1,5,0.87
2014-12-4,58.1,52.8,48.9,54.1,49.1,46.8,94,88,71,29.86,29.73,5,2,9,0.19
2014-12-5,58.1,52.9,48.9,47.0,44.7,42.2,87,74,58,30.06,29.85,8,3,14,0.38
2014-12-6,56.5,51.9,45.3,44.1,42.4,40.7,86,70,59,30.06,29.98,7,2,10,0.03
2014-12-7,54.7,48.6,42.3,43.9,40.7,38.1,86,74,65,30.21,30.01,5,2,9,0.01
2014-12-8,62.0,53.9,46.8,47.1,43.1,39.5,78,67,51,30.22,30.04,7,3,12,0.02
2014-12-9,55.1,50.8,46.1,46.6,35.6,25.2,74,57,37,30.24,29.99,12,7,22,0.27
2014-12-10,59.0,51.6,48.3,42.8,35.2,27.1,74,54,38,30.34,30.23,9,4,14,0.00
2014-12-11,64.7,57.0,49.8,50.3,46.6,42.0,85,69,55,30.29,30.18,11,3,16,0.00
2014-12-12,59.8,53.1,45.6,51.7,47.7,41.1,88,82,73,30.27,30.04,6,3,9,0.00
2014-12-13,59.0,55.8,51.8,54.2,51.1,46.9,89,84,80,30.03,29.95,6,3,8,0.00
2014-12-14,58.5,54.1,50.0,53.0,49.9,46.6,89,86,77,29.98,29.91,2,0,5,0.01
2014-12-15,59.6,52.1,47.6,52.8,47.7,43.6,91,85,68,29.97,29.91,6,1,10,0.52
2014-12-16,54.3,51.2,48.0,50.0,46.8,43.8,91,85,73,29.97,29.85,4,1,10,0.42
2014-12-17,63.2,54.2,46.6,53.8,45.8,42.1,90,74,49,30.14,29.96,6,1,7,0.01
2014-12-18,64.5,57.5,52.3,52.1,48.1,45.1,79,71,61,30.29,30.09,6,1,11,0.00
2014-12-19,67.0,56.9,50.3,56.2,49.5,46.2,87,77,61,30.35,30.27,4,1,6,0.00
2014-12-20,62.9,53.6,47.6,53.2,47.7,44.8,91,81,60,30.42,30.35,6,2,7,0.01
2014-12-21,66.2,53.2,45.8,52.8,46.2,42.2,89,78,57,30.46,30.39,4,1,6,0.00
2014-12-22,62.7,52.3,45.4,52.9,46.8,41.8,89,82,65,30.48,30.41,3,1,4,0.01
2014-12-23,60.9,51.6,45.1,51.8,46.8,40.2,91,84,71,30.43,30.35,5,1,7,0.01
2014-12-24,62.7,50.8,43.3,52.2,44.6,37.2,87,80,65,30.38,30.30,5,1,11,0.00
2014-12-25,61.1,50.7,44.6,52.9,42.6,36.4,90,75,49,30.40,30.32,4,1,8,0.01
2014-12-26,59.0,50.2,44.2,48.0,42.3,37.5,83,75,65,30.39,30.30,4,1,8,0.00
2014-12-27,52.5,50.4,47.5,46.6,45.1,42.6,85,82,80,30.32,30.16,4,2,7,0.00